sensor_id;sensor_type;location;lat;lon;timestamp;temperature;humidity
3550;DHT22;45572;48.804;8.330;2023-10-09T00:00:06;12.90;91.30
3550;DHT22;45572;48.804;8.330;2023-10-09T00:02:57;12.80;91.30
3550;DHT22;45572;48.804;8.330;2023-10-09T00:05:29;12.80;91.60
3550;DHT22;45572;48.804;8.330;2023-10-09T00:08:06;12.80;91.40
3550;DHT22;45572;48.804;8.330;2023-10-09T00:10:38;12.80;91.50
3550;DHT22;45572;48.804;8.330;2023-10-09T00:13:15;12.60;91.50
3550;DHT22;45572;48.804;8.330;2023-10-09T00:15:45;12.60;91.80
3550;DHT22;45572;48.804;8.330;2023-10-09T00:18:19;12.70;91.80
3550;DHT22;45572;48.804;8.330;2023-10-09T00:20:57;12.70;91.80
3550;DHT22;45572;48.804;8.330;2023-10-09T00:23:28;12.60;91.90
3550;DHT22;45572;48.804;8.330;2023-10-09T00:25:59;12.50;92.00
3550;DHT22;45572;48.804;8.330;2023-10-09T00:28:38;12.60;92.00
3550;DHT22;45572;48.804;8.330;2023-10-09T00:31:11;12.50;92.10
3550;DHT22;45572;48.804;8.330;2023-10-09T00:33:42;12.40;92.40
3550;DHT22;45572;48.804;8.330;2023-10-09T00:36:12;12.50;92.40
3550;DHT22;45572;48.804;8.330;2023-10-09T00:38:46;12.50;92.00
3550;DHT22;45572;48.804;8.330;2023-10-09T00:41:17;12.60;91.70
3550;DHT22;45572;48.804;8.330;2023-10-09T00:43:48;12.50;91.80
3550;DHT22;45572;48.804;8.330;2023-10-09T00:46:18;12.50;92.00
3550;DHT22;45572;48.804;8.330;2023-10-09T00:48:54;12.50;92.20
3550;DHT22;45572;48.804;8.330;2023-10-09T00:51:24;12.60;92.00
3550;DHT22;45572;48.804;8.330;2023-10-09T00:53:56;12.80;91.30
3550;DHT22;45572;48.804;8.330;2023-10-09T00:56:26;13.00;90.50
3550;DHT22;45572;48.804;8.330;2023-10-09T00:59:05;12.90;90.50
3550;DHT22;45572;48.804;8.330;2023-10-09T01:01:36;12.90;90.60
3550;DHT22;45572;48.804;8.330;2023-10-09T01:04:07;12.90;90.70
3550;DHT22;45572;48.804;8.330;2023-10-09T01:06:41;12.80;91.00
3550;DHT22;45572;48.804;8.330;2023-10-09T01:09:12;12.80;90.90
3550;DHT22;45572;48.804;8.330;2023-10-09T01:11:41;12.70;91.10
3550;DHT22;45572;48.804;8.330;2023-10-09T01:14:15;12.60;91.40
3550;DHT22;45572;48.804;8.330;2023-10-09T01:16:43;12.60;91.40
3550;DHT22;45572;48.804;8.330;2023-10-09T01:19:13;12.70;91.10
3550;DHT22;45572;48.804;8.330;2023-10-09T01:21:48;12.60;91.30
3550;DHT22;45572;48.804;8.330;2023-10-09T01:24:18;12.60;91.30
3550;DHT22;45572;48.804;8.330;2023-10-09T01:26:49;12.50;91.60
3550;DHT22;45572;48.804;8.330;2023-10-09T01:29:22;12.50;91.80
3550;DHT22;45572;48.804;8.330;2023-10-09T01:31:55;12.40;91.80
3550;DHT22;45572;48.804;8.330;2023-10-09T01:34:28;12.20;92.20
3550;DHT22;45572;48.804;8.330;2023-10-09T01:37:07;12.20;92.40
3550;DHT22;45572;48.804;8.330;2023-10-09T01:39:40;12.20;92.10
3550;DHT22;45572;48.804;8.330;2023-10-09T01:42:08;12.10;92.10
3550;DHT22;45572;48.804;8.330;2023-10-09T01:44:37;12.00;92.50
3550;DHT22;45572;48.804;8.330;2023-10-09T01:47:10;12.00;92.50
3550;DHT22;45572;48.804;8.330;2023-10-09T01:49:40;12.00;92.50
3550;DHT22;45572;48.804;8.330;2023-10-09T01:52:10;12.00;92.60
3550;DHT22;45572;48.804;8.330;2023-10-09T01:54:44;11.90;92.90
3550;DHT22;45572;48.804;8.330;2023-10-09T01:57:14;11.80;93.20
3550;DHT22;45572;48.804;8.330;2023-10-09T01:59:43;11.90;92.90
3550;DHT22;45572;48.804;8.330;2023-10-09T02:02:14;11.90;92.80
3550;DHT22;45572;48.804;8.330;2023-10-09T02:04:53;11.90;93.00
3550;DHT22;45572;48.804;8.330;2023-10-09T02:07:30;11.90;93.10
3550;DHT22;45572;48.804;8.330;2023-10-09T02:10:09;11.90;93.20
3550;DHT22;45572;48.804;8.330;2023-10-09T02:12:48;12.00;93.20
3550;DHT22;45572;48.804;8.330;2023-10-09T02:15:22;12.00;93.40
3550;DHT22;45572;48.804;8.330;2023-10-09T02:18:14;12.10;93.20
3550;DHT22;45572;48.804;8.330;2023-10-09T02:20:47;12.10;93.20
3550;DHT22;45572;48.804;8.330;2023-10-09T02:23:28;12.20;93.00
3550;DHT22;45572;48.804;8.330;2023-10-09T02:26:07;12.30;92.60
3550;DHT22;45572;48.804;8.330;2023-10-09T02:28:36;12.30;92.50
3550;DHT22;45572;48.804;8.330;2023-10-09T02:31:10;12.30;92.50
3550;DHT22;45572;48.804;8.330;2023-10-09T02:33:39;12.40;92.30
3550;DHT22;45572;48.804;8.330;2023-10-09T02:36:08;12.40;92.30
3550;DHT22;45572;48.804;8.330;2023-10-09T02:38:36;12.40;92.50
3550;DHT22;45572;48.804;8.330;2023-10-09T02:41:09;12.40;92.40
3550;DHT22;45572;48.804;8.330;2023-10-09T02:43:51;12.50;92.30
3550;DHT22;45572;48.804;8.330;2023-10-09T02:46:22;12.50;92.20
3550;DHT22;45572;48.804;8.330;2023-10-09T02:48:57;12.50;92.40
3550;DHT22;45572;48.804;8.330;2023-10-09T02:51:26;12.50;92.50
3550;DHT22;45572;48.804;8.330;2023-10-09T02:54:08;12.50;92.20
3550;DHT22;45572;48.804;8.330;2023-10-09T02:56:48;12.60;92.20
3550;DHT22;45572;48.804;8.330;2023-10-09T02:59:23;12.60;92.00
3550;DHT22;45572;48.804;8.330;2023-10-09T03:01:51;12.60;91.90
3550;DHT22;45572;48.804;8.330;2023-10-09T03:04:20;12.70;91.80
3550;DHT22;45572;48.804;8.330;2023-10-09T03:06:51;12.80;91.30
3550;DHT22;45572;48.804;8.330;2023-10-09T03:09:20;12.80;91.70
3550;DHT22;45572;48.804;8.330;2023-10-09T03:11:57;12.90;91.20
3550;DHT22;45572;48.804;8.330;2023-10-09T03:14:30;12.90;91.20
3550;DHT22;45572;48.804;8.330;2023-10-09T03:16:58;12.90;91.30
3550;DHT22;45572;48.804;8.330;2023-10-09T03:19:27;12.90;91.40
3550;DHT22;45572;48.804;8.330;2023-10-09T03:21:56;12.80;91.60
3550;DHT22;45572;48.804;8.330;2023-10-09T03:24:25;12.80;91.50
3550;DHT22;45572;48.804;8.330;2023-10-09T03:26:55;12.70;91.60
3550;DHT22;45572;48.804;8.330;2023-10-09T03:29:23;12.70;91.90
3550;DHT22;45572;48.804;8.330;2023-10-09T03:31:51;12.70;91.80
3550;DHT22;45572;48.804;8.330;2023-10-09T03:34:20;12.60;91.80
3550;DHT22;45572;48.804;8.330;2023-10-09T03:36:47;12.60;92.00
3550;DHT22;45572;48.804;8.330;2023-10-09T03:39:18;12.50;92.40
3550;DHT22;45572;48.804;8.330;2023-10-09T03:41:51;12.50;92.50
3550;DHT22;45572;48.804;8.330;2023-10-09T03:44:22;12.50;92.50
3550;DHT22;45572;48.804;8.330;2023-10-09T03:46:49;12.50;92.00
3550;DHT22;45572;48.804;8.330;2023-10-09T03:49:18;12.50;92.00
3550;DHT22;45572;48.804;8.330;2023-10-09T03:51:50;12.40;92.00
3550;DHT22;45572;48.804;8.330;2023-10-09T03:54:18;12.40;92.20
3550;DHT22;45572;48.804;8.330;2023-10-09T03:56:48;12.40;92.20
3550;DHT22;45572;48.804;8.330;2023-10-09T03:59:17;12.40;92.40
3550;DHT22;45572;48.804;8.330;2023-10-09T04:01:48;12.30;92.60
3550;DHT22;45572;48.804;8.330;2023-10-09T04:04:19;12.40;92.90
3550;DHT22;45572;48.804;8.330;2023-10-09T04:06:50;12.30;92.90
3550;DHT22;45572;48.804;8.330;2023-10-09T04:09:18;12.30;93.10
3550;DHT22;45572;48.804;8.330;2023-10-09T04:12:00;12.30;93.00
3550;DHT22;45572;48.804;8.330;2023-10-09T04:14:42;12.30;93.20
3550;DHT22;45572;48.804;8.330;2023-10-09T04:17:18;12.20;93.20
3550;DHT22;45572;48.804;8.330;2023-10-09T04:20:00;12.20;93.20
3550;DHT22;45572;48.804;8.330;2023-10-09T04:22:42;12.20;93.50
3550;DHT22;45572;48.804;8.330;2023-10-09T04:25:17;12.20;93.30
3550;DHT22;45572;48.804;8.330;2023-10-09T04:27:52;12.20;93.60
3550;DHT22;45572;48.804;8.330;2023-10-09T04:30:19;12.20;93.60
3550;DHT22;45572;48.804;8.330;2023-10-09T04:32:51;12.10;93.80
3550;DHT22;45572;48.804;8.330;2023-10-09T04:35:22;12.20;93.80
3550;DHT22;45572;48.804;8.330;2023-10-09T04:37:51;12.20;93.70
3550;DHT22;45572;48.804;8.330;2023-10-09T04:40:27;12.20;93.60
3550;DHT22;45572;48.804;8.330;2023-10-09T04:43:15;12.20;93.60
3550;DHT22;45572;48.804;8.330;2023-10-09T04:45:48;12.20;93.80
3550;DHT22;45572;48.804;8.330;2023-10-09T04:48:31;12.20;93.90
3550;DHT22;45572;48.804;8.330;2023-10-09T04:51:05;12.20;93.80
3550;DHT22;45572;48.804;8.330;2023-10-09T04:53:47;12.20;93.80
3550;DHT22;45572;48.804;8.330;2023-10-09T04:56:21;12.30;93.90
3550;DHT22;45572;48.804;8.330;2023-10-09T04:58:50;12.30;93.80
3550;DHT22;45572;48.804;8.330;2023-10-09T05:01:30;12.40;93.70
3550;DHT22;45572;48.804;8.330;2023-10-09T05:04:11;12.40;93.50
3550;DHT22;45572;48.804;8.330;2023-10-09T05:06:56;12.40;93.50
3550;DHT22;45572;48.804;8.330;2023-10-09T05:09:24;12.30;93.60
3550;DHT22;45572;48.804;8.330;2023-10-09T05:11:52;12.20;93.90
3550;DHT22;45572;48.804;8.330;2023-10-09T05:14:23;12.20;94.10
3550;DHT22;45572;48.804;8.330;2023-10-09T05:16:54;12.30;94.20
3550;DHT22;45572;48.804;8.330;2023-10-09T05:19:23;12.30;93.90
3550;DHT22;45572;48.804;8.330;2023-10-09T05:22:05;12.30;93.90
3550;DHT22;45572;48.804;8.330;2023-10-09T05:24:43;12.20;94.10
3550;DHT22;45572;48.804;8.330;2023-10-09T05:27:12;12.20;94.20
3550;DHT22;45572;48.804;8.330;2023-10-09T05:29:45;12.20;94.30
3550;DHT22;45572;48.804;8.330;2023-10-09T05:32:26;12.20;94.30
3550;DHT22;45572;48.804;8.330;2023-10-09T05:35:03;12.30;94.50
3550;DHT22;45572;48.804;8.330;2023-10-09T05:37:42;12.30;94.30
3550;DHT22;45572;48.804;8.330;2023-10-09T05:40:13;12.40;94.20
3550;DHT22;45572;48.804;8.330;2023-10-09T05:42:54;12.50;93.90
3550;DHT22;45572;48.804;8.330;2023-10-09T05:45:27;12.50;93.70
3550;DHT22;45572;48.804;8.330;2023-10-09T05:48:09;12.50;93.50
3550;DHT22;45572;48.804;8.330;2023-10-09T05:50:52;12.50;93.70
3550;DHT22;45572;48.804;8.330;2023-10-09T05:53:34;12.50;93.50
3550;DHT22;45572;48.804;8.330;2023-10-09T05:56:29;12.50;93.70
3550;DHT22;45572;48.804;8.330;2023-10-09T05:59:11;12.40;93.80
3550;DHT22;45572;48.804;8.330;2023-10-09T06:01:53;12.50;93.70
3550;DHT22;45572;48.804;8.330;2023-10-09T06:04:35;12.50;93.50
3550;DHT22;45572;48.804;8.330;2023-10-09T06:07:16;12.50;93.50
3550;DHT22;45572;48.804;8.330;2023-10-09T06:09:50;12.50;93.70
3550;DHT22;45572;48.804;8.330;2023-10-09T06:12:24;12.50;93.90
3550;DHT22;45572;48.804;8.330;2023-10-09T06:15:07;12.50;93.90
3550;DHT22;45572;48.804;8.330;2023-10-09T06:17:49;12.60;93.80
3550;DHT22;45572;48.804;8.330;2023-10-09T06:20:18;12.50;94.10
3550;DHT22;45572;48.804;8.330;2023-10-09T06:23:00;12.60;93.90
3550;DHT22;45572;48.804;8.330;2023-10-09T06:25:43;12.70;93.70
3550;DHT22;45572;48.804;8.330;2023-10-09T06:28:19;12.80;93.50
3550;DHT22;45572;48.804;8.330;2023-10-09T06:30:59;12.90;93.30
3550;DHT22;45572;48.804;8.330;2023-10-09T06:33:48;13.00;93.20
3550;DHT22;45572;48.804;8.330;2023-10-09T06:36:34;13.00;92.80
3550;DHT22;45572;48.804;8.330;2023-10-09T06:39:12;13.10;92.80
3550;DHT22;45572;48.804;8.330;2023-10-09T06:41:54;13.20;92.60
3550;DHT22;45572;48.804;8.330;2023-10-09T06:44:38;13.30;92.50
3550;DHT22;45572;48.804;8.330;2023-10-09T06:47:20;13.50;92.50
3550;DHT22;45572;48.804;8.330;2023-10-09T06:49:51;13.50;92.20
3550;DHT22;45572;48.804;8.330;2023-10-09T06:52:32;13.50;92.30
3550;DHT22;45572;48.804;8.330;2023-10-09T06:55:14;13.70;92.40
3550;DHT22;45572;48.804;8.330;2023-10-09T06:57:46;13.80;91.80
3550;DHT22;45572;48.804;8.330;2023-10-09T07:00:17;13.90;91.60
3550;DHT22;45572;48.804;8.330;2023-10-09T07:02:59;14.00;91.80
3550;DHT22;45572;48.804;8.330;2023-10-09T07:05:38;14.10;91.50
3550;DHT22;45572;48.804;8.330;2023-10-09T07:08:27;14.30;91.20
3550;DHT22;45572;48.804;8.330;2023-10-09T07:11:00;14.40;91.50
3550;DHT22;45572;48.804;8.330;2023-10-09T07:13:47;14.60;91.40
3550;DHT22;45572;48.804;8.330;2023-10-09T07:16:22;14.80;91.50
3550;DHT22;45572;48.804;8.330;2023-10-09T07:18:55;14.90;91.10
3550;DHT22;45572;48.804;8.330;2023-10-09T07:21:36;15.00;91.20
3550;DHT22;45572;48.804;8.330;2023-10-09T07:24:06;15.20;90.90
3550;DHT22;45572;48.804;8.330;2023-10-09T07:26:43;15.30;90.20
3550;DHT22;45572;48.804;8.330;2023-10-09T07:29:19;15.40;89.80
3550;DHT22;45572;48.804;8.330;2023-10-09T07:31:52;15.50;90.00
3550;DHT22;45572;48.804;8.330;2023-10-09T07:34:24;15.60;90.00
3550;DHT22;45572;48.804;8.330;2023-10-09T07:37:20;15.70;90.20
3550;DHT22;45572;48.804;8.330;2023-10-09T07:39:50;15.90;89.70
3550;DHT22;45572;48.804;8.330;2023-10-09T07:42:24;16.20;89.50
3550;DHT22;45572;48.804;8.330;2023-10-09T07:45:01;16.40;89.00
3550;DHT22;45572;48.804;8.330;2023-10-09T07:47:41;16.50;88.20
3550;DHT22;45572;48.804;8.330;2023-10-09T07:50:23;16.70;87.80
3550;DHT22;45572;48.804;8.330;2023-10-09T07:52:51;17.00;87.40
3550;DHT22;45572;48.804;8.330;2023-10-09T07:55:39;17.00;87.10
3550;DHT22;45572;48.804;8.330;2023-10-09T07:58:12;17.30;86.60
3550;DHT22;45572;48.804;8.330;2023-10-09T08:00:40;17.40;86.10
3550;DHT22;45572;48.804;8.330;2023-10-09T08:03:34;17.50;86.00
3550;DHT22;45572;48.804;8.330;2023-10-09T08:06:03;17.80;85.80
3550;DHT22;45572;48.804;8.330;2023-10-09T08:08:45;18.00;84.80
3550;DHT22;45572;48.804;8.330;2023-10-09T08:11:33;18.20;84.60
3550;DHT22;45572;48.804;8.330;2023-10-09T08:14:15;18.40;84.00
3550;DHT22;45572;48.804;8.330;2023-10-09T08:17:08;18.70;83.90
3550;DHT22;45572;48.804;8.330;2023-10-09T08:19:51;19.00;83.30
3550;DHT22;45572;48.804;8.330;2023-10-09T08:22:21;19.20;80.90
3550;DHT22;45572;48.804;8.330;2023-10-09T08:25:04;19.40;79.70
3550;DHT22;45572;48.804;8.330;2023-10-09T08:27:32;19.70;79.30
3550;DHT22;45572;48.804;8.330;2023-10-09T08:30:14;19.90;78.60
3550;DHT22;45572;48.804;8.330;2023-10-09T08:32:56;20.00;76.30
3550;DHT22;45572;48.804;8.330;2023-10-09T08:35:33;19.90;77.00
3550;DHT22;45572;48.804;8.330;2023-10-09T08:38:14;19.70;77.10
3550;DHT22;45572;48.804;8.330;2023-10-09T08:40:44;19.80;76.30
3550;DHT22;45572;48.804;8.330;2023-10-09T08:43:14;19.70;76.60
3550;DHT22;45572;48.804;8.330;2023-10-09T08:45:46;19.50;77.50
3550;DHT22;45572;48.804;8.330;2023-10-09T08:48:14;19.90;77.20
3550;DHT22;45572;48.804;8.330;2023-10-09T08:50:45;20.10;76.70
3550;DHT22;45572;48.804;8.330;2023-10-09T08:53:17;20.30;74.80
3550;DHT22;45572;48.804;8.330;2023-10-09T08:55:45;20.70;75.30
3550;DHT22;45572;48.804;8.330;2023-10-09T08:58:15;21.00;76.10
3550;DHT22;45572;48.804;8.330;2023-10-09T09:00:47;21.30;76.00
3550;DHT22;45572;48.804;8.330;2023-10-09T09:03:17;21.50;73.70
3550;DHT22;45572;48.804;8.330;2023-10-09T09:05:48;21.70;72.90
3550;DHT22;45572;48.804;8.330;2023-10-09T09:08:22;21.70;72.50
3550;DHT22;45572;48.804;8.330;2023-10-09T09:10:57;22.10;73.20
3550;DHT22;45572;48.804;8.330;2023-10-09T09:13:26;22.30;71.40
3550;DHT22;45572;48.804;8.330;2023-10-09T09:15:58;22.40;69.70
3550;DHT22;45572;48.804;8.330;2023-10-09T09:18:26;22.80;71.50
3550;DHT22;45572;48.804;8.330;2023-10-09T09:20:59;23.30;72.00
3550;DHT22;45572;48.804;8.330;2023-10-09T09:23:27;23.80;70.30
3550;DHT22;45572;48.804;8.330;2023-10-09T09:25:55;24.30;68.10
3550;DHT22;45572;48.804;8.330;2023-10-09T09:28:28;25.00;67.80
3550;DHT22;45572;48.804;8.330;2023-10-09T09:31:08;25.60;65.50
3550;DHT22;45572;48.804;8.330;2023-10-09T09:33:40;26.10;65.90
3550;DHT22;45572;48.804;8.330;2023-10-09T09:36:13;26.50;64.30
3550;DHT22;45572;48.804;8.330;2023-10-09T09:38:42;26.50;63.00
3550;DHT22;45572;48.804;8.330;2023-10-09T09:41:16;26.70;63.30
3550;DHT22;45572;48.804;8.330;2023-10-09T09:43:53;26.90;62.30
3550;DHT22;45572;48.804;8.330;2023-10-09T09:46:24;26.50;62.40
3550;DHT22;45572;48.804;8.330;2023-10-09T09:49:03;26.70;62.00
3550;DHT22;45572;48.804;8.330;2023-10-09T09:51:35;26.50;61.50
3550;DHT22;45572;48.804;8.330;2023-10-09T09:54:05;26.50;61.70
3550;DHT22;45572;48.804;8.330;2023-10-09T09:56:37;27.10;62.70
3550;DHT22;45572;48.804;8.330;2023-10-09T09:59:08;27.60;62.80
3550;DHT22;45572;48.804;8.330;2023-10-09T10:01:43;28.00;61.40
3550;DHT22;45572;48.804;8.330;2023-10-09T10:04:15;28.40;59.40
3550;DHT22;45572;48.804;8.330;2023-10-09T10:06:50;28.80;61.00
3550;DHT22;45572;48.804;8.330;2023-10-09T10:09:37;29.30;57.80
3550;DHT22;45572;48.804;8.330;2023-10-09T10:12:07;29.50;59.60
3550;DHT22;45572;48.804;8.330;2023-10-09T10:14:55;29.20;56.30
3550;DHT22;45572;48.804;8.330;2023-10-09T10:17:26;28.90;57.60
3550;DHT22;45572;48.804;8.330;2023-10-09T10:20:02;28.80;59.30
3550;DHT22;45572;48.804;8.330;2023-10-09T10:23:17;28.20;58.40
3550;DHT22;45572;48.804;8.330;2023-10-09T10:25:47;28.40;60.20
3550;DHT22;45572;48.804;8.330;2023-10-09T10:28:19;28.70;62.60
3550;DHT22;45572;48.804;8.330;2023-10-09T10:31:03;29.00;59.10
3550;DHT22;45572;48.804;8.330;2023-10-09T10:36:38;29.30;59.30
3550;DHT22;45572;48.804;8.330;2023-10-09T10:39:12;29.50;58.30
3550;DHT22;45572;48.804;8.330;2023-10-09T10:41:56;29.80;58.00
3550;DHT22;45572;48.804;8.330;2023-10-09T10:44:28;29.70;58.10
3550;DHT22;45572;48.804;8.330;2023-10-09T10:47:06;29.90;58.40
3550;DHT22;45572;48.804;8.330;2023-10-09T10:49:49;30.00;61.20
3550;DHT22;45572;48.804;8.330;2023-10-09T10:52:21;30.10;57.80
3550;DHT22;45572;48.804;8.330;2023-10-09T10:55:12;30.20;56.80
3550;DHT22;45572;48.804;8.330;2023-10-09T10:57:54;30.00;52.40
3550;DHT22;45572;48.804;8.330;2023-10-09T11:00:27;29.40;53.30
3550;DHT22;45572;48.804;8.330;2023-10-09T11:03:09;30.00;55.20
3550;DHT22;45572;48.804;8.330;2023-10-09T11:05:47;30.40;53.00
3550;DHT22;45572;48.804;8.330;2023-10-09T11:08:24;30.30;53.20
3550;DHT22;45572;48.804;8.330;2023-10-09T11:11:11;30.10;51.90
3550;DHT22;45572;48.804;8.330;2023-10-09T11:13:43;28.40;49.60
3550;DHT22;45572;48.804;8.330;2023-10-09T11:16:21;27.40;51.30
3550;DHT22;45572;48.804;8.330;2023-10-09T11:19:10;26.90;52.50
3550;DHT22;45572;48.804;8.330;2023-10-09T11:21:56;26.40;55.20
3550;DHT22;45572;48.804;8.330;2023-10-09T11:24:48;26.00;54.40
3550;DHT22;45572;48.804;8.330;2023-10-09T11:27:29;25.80;55.80
3550;DHT22;45572;48.804;8.330;2023-10-09T11:29:59;25.60;57.00
3550;DHT22;45572;48.804;8.330;2023-10-09T11:32:37;25.30;56.40
3550;DHT22;45572;48.804;8.330;2023-10-09T11:35:11;25.30;57.70
3550;DHT22;45572;48.804;8.330;2023-10-09T11:37:38;25.40;62.50
3550;DHT22;45572;48.804;8.330;2023-10-09T11:40:27;25.30;58.80
3550;DHT22;45572;48.804;8.330;2023-10-09T11:43:01;25.30;59.70
3550;DHT22;45572;48.804;8.330;2023-10-09T11:45:30;25.10;59.10
3550;DHT22;45572;48.804;8.330;2023-10-09T11:48:16;25.10;59.10
3550;DHT22;45572;48.804;8.330;2023-10-09T11:50:54;25.10;58.90
3550;DHT22;45572;48.804;8.330;2023-10-09T11:53:42;25.40;59.50
3550;DHT22;45572;48.804;8.330;2023-10-09T11:56:13;25.60;61.10
3550;DHT22;45572;48.804;8.330;2023-10-09T11:58:46;25.90;58.80
3550;DHT22;45572;48.804;8.330;2023-10-09T12:01:17;26.20;61.40
3550;DHT22;45572;48.804;8.330;2023-10-09T12:03:47;26.00;55.20
3550;DHT22;45572;48.804;8.330;2023-10-09T12:06:19;26.10;57.40
3550;DHT22;45572;48.804;8.330;2023-10-09T12:08:50;26.10;56.50
3550;DHT22;45572;48.804;8.330;2023-10-09T12:11:18;26.00;57.20
3550;DHT22;45572;48.804;8.330;2023-10-09T12:13:57;26.10;57.20
3550;DHT22;45572;48.804;8.330;2023-10-09T12:16:28;26.20;58.20
3550;DHT22;45572;48.804;8.330;2023-10-09T12:19:00;26.40;56.70
3550;DHT22;45572;48.804;8.330;2023-10-09T12:21:34;26.80;58.80
3550;DHT22;45572;48.804;8.330;2023-10-09T12:24:03;26.90;59.80
3550;DHT22;45572;48.804;8.330;2023-10-09T12:26:38;26.70;59.20
3550;DHT22;45572;48.804;8.330;2023-10-09T12:29:10;26.80;58.00
3550;DHT22;45572;48.804;8.330;2023-10-09T12:31:39;27.00;57.00
3550;DHT22;45572;48.804;8.330;2023-10-09T12:34:12;27.00;58.30
3550;DHT22;45572;48.804;8.330;2023-10-09T12:36:45;27.10;54.30
3550;DHT22;45572;48.804;8.330;2023-10-09T12:39:14;27.10;53.60
3550;DHT22;45572;48.804;8.330;2023-10-09T12:41:47;27.00;56.90
3550;DHT22;45572;48.804;8.330;2023-10-09T12:44:16;26.90;53.70
3550;DHT22;45572;48.804;8.330;2023-10-09T12:46:48;27.00;57.80
3550;DHT22;45572;48.804;8.330;2023-10-09T12:49:20;27.20;55.60
3550;DHT22;45572;48.804;8.330;2023-10-09T12:51:52;27.20;55.50
3550;DHT22;45572;48.804;8.330;2023-10-09T12:54:21;27.00;55.70
3550;DHT22;45572;48.804;8.330;2023-10-09T12:56:55;26.90;54.80
3550;DHT22;45572;48.804;8.330;2023-10-09T12:59:27;27.00;53.80
3550;DHT22;45572;48.804;8.330;2023-10-09T13:01:55;27.00;55.20
3550;DHT22;45572;48.804;8.330;2023-10-09T13:04:25;26.90;52.50
3550;DHT22;45572;48.804;8.330;2023-10-09T13:06:58;26.80;53.60
3550;DHT22;45572;48.804;8.330;2023-10-09T13:09:30;26.70;51.40
3550;DHT22;45572;48.804;8.330;2023-10-09T13:12:03;26.60;51.80
3550;DHT22;45572;48.804;8.330;2023-10-09T13:14:33;26.60;52.60
3550;DHT22;45572;48.804;8.330;2023-10-09T13:17:02;26.50;51.80
3550;DHT22;45572;48.804;8.330;2023-10-09T13:19:36;26.50;52.80
3550;DHT22;45572;48.804;8.330;2023-10-09T13:22:04;26.50;52.20
3550;DHT22;45572;48.804;8.330;2023-10-09T13:24:39;26.50;53.80
3550;DHT22;45572;48.804;8.330;2023-10-09T13:27:08;26.60;50.80
3550;DHT22;45572;48.804;8.330;2023-10-09T13:29:38;26.50;52.60
3550;DHT22;45572;48.804;8.330;2023-10-09T13:32:07;26.50;52.30
3550;DHT22;45572;48.804;8.330;2023-10-09T13:34:40;26.50;53.20
3550;DHT22;45572;48.804;8.330;2023-10-09T13:37:11;26.40;52.40
3550;DHT22;45572;48.804;8.330;2023-10-09T13:39:40;26.50;53.70
3550;DHT22;45572;48.804;8.330;2023-10-09T13:42:18;26.50;54.30
3550;DHT22;45572;48.804;8.330;2023-10-09T13:44:52;26.50;53.70
3550;DHT22;45572;48.804;8.330;2023-10-09T13:47:22;26.60;54.00
3550;DHT22;45572;48.804;8.330;2023-10-09T13:49:56;26.50;50.70
3550;DHT22;45572;48.804;8.330;2023-10-09T13:52:25;26.50;52.30
3550;DHT22;45572;48.804;8.330;2023-10-09T13:54:55;26.50;49.40
3550;DHT22;45572;48.804;8.330;2023-10-09T13:57:25;26.50;48.60
3550;DHT22;45572;48.804;8.330;2023-10-09T13:59:59;26.50;48.30
3550;DHT22;45572;48.804;8.330;2023-10-09T14:02:27;26.60;49.70
3550;DHT22;45572;48.804;8.330;2023-10-09T14:04:56;26.70;49.60
3550;DHT22;45572;48.804;8.330;2023-10-09T14:07:28;26.80;50.00
3550;DHT22;45572;48.804;8.330;2023-10-09T14:09:56;26.80;48.20
3550;DHT22;45572;48.804;8.330;2023-10-09T14:12:34;26.80;48.70
3550;DHT22;45572;48.804;8.330;2023-10-09T14:15:10;26.70;49.10
3550;DHT22;45572;48.804;8.330;2023-10-09T14:17:45;26.60;49.20
3550;DHT22;45572;48.804;8.330;2023-10-09T14:20:23;26.50;48.80
3550;DHT22;45572;48.804;8.330;2023-10-09T14:23:00;26.60;49.80
3550;DHT22;45572;48.804;8.330;2023-10-09T14:25:35;26.80;49.80
3550;DHT22;45572;48.804;8.330;2023-10-09T14:28:08;27.00;50.80
3550;DHT22;45572;48.804;8.330;2023-10-09T14:30:38;27.00;51.90
3550;DHT22;45572;48.804;8.330;2023-10-09T14:33:09;27.10;48.70
3550;DHT22;45572;48.804;8.330;2023-10-09T14:35:40;27.10;49.20
3550;DHT22;45572;48.804;8.330;2023-10-09T14:38:08;27.10;48.10
3550;DHT22;45572;48.804;8.330;2023-10-09T14:40:42;27.00;48.50
3550;DHT22;45572;48.804;8.330;2023-10-09T14:43:11;27.00;49.40
3550;DHT22;45572;48.804;8.330;2023-10-09T14:45:47;27.10;50.10
3550;DHT22;45572;48.804;8.330;2023-10-09T14:48:16;27.00;49.30
3550;DHT22;45572;48.804;8.330;2023-10-09T14:50:47;27.00;49.00
3550;DHT22;45572;48.804;8.330;2023-10-09T14:53:16;26.90;49.00
3550;DHT22;45572;48.804;8.330;2023-10-09T14:55:43;26.80;49.50
3550;DHT22;45572;48.804;8.330;2023-10-09T14:58:12;26.60;49.50
3550;DHT22;45572;48.804;8.330;2023-10-09T15:00:39;26.60;50.60
3550;DHT22;45572;48.804;8.330;2023-10-09T15:03:14;26.40;49.40
3550;DHT22;45572;48.804;8.330;2023-10-09T15:05:42;26.40;50.60
3550;DHT22;45572;48.804;8.330;2023-10-09T15:08:10;26.40;50.00
3550;DHT22;45572;48.804;8.330;2023-10-09T15:10:46;26.40;50.20
3550;DHT22;45572;48.804;8.330;2023-10-09T15:13:15;26.40;52.40
3550;DHT22;45572;48.804;8.330;2023-10-09T15:15:44;26.30;49.90
3550;DHT22;45572;48.804;8.330;2023-10-09T15:18:16;26.40;50.00
3550;DHT22;45572;48.804;8.330;2023-10-09T15:20:46;26.50;50.60
3550;DHT22;45572;48.804;8.330;2023-10-09T15:23:15;26.50;53.90
3550;DHT22;45572;48.804;8.330;2023-10-09T15:25:43;26.40;55.70
3550;DHT22;45572;48.804;8.330;2023-10-09T15:28:12;26.30;55.70
3550;DHT22;45572;48.804;8.330;2023-10-09T15:30:42;26.30;54.30
3550;DHT22;45572;48.804;8.330;2023-10-09T15:33:09;26.20;52.90
3550;DHT22;45572;48.804;8.330;2023-10-09T15:35:39;26.20;59.00
3550;DHT22;45572;48.804;8.330;2023-10-09T15:38:07;26.10;61.00
3550;DHT22;45572;48.804;8.330;2023-10-09T15:40:39;26.10;62.80
3550;DHT22;45572;48.804;8.330;2023-10-09T15:43:10;26.10;63.90
3550;DHT22;45572;48.804;8.330;2023-10-09T15:45:42;26.00;63.90
3550;DHT22;45572;48.804;8.330;2023-10-09T15:48:11;25.90;65.10
3550;DHT22;45572;48.804;8.330;2023-10-09T15:50:44;25.70;66.80
3550;DHT22;45572;48.804;8.330;2023-10-09T15:53:15;25.60;67.00
3550;DHT22;45572;48.804;8.330;2023-10-09T15:55:44;25.30;68.20
3550;DHT22;45572;48.804;8.330;2023-10-09T15:58:12;24.90;69.70
3550;DHT22;45572;48.804;8.330;2023-10-09T16:00:43;24.50;70.80
3550;DHT22;45572;48.804;8.330;2023-10-09T16:03:12;24.30;70.70
3550;DHT22;45572;48.804;8.330;2023-10-09T16:05:42;24.00;72.70
3550;DHT22;45572;48.804;8.330;2023-10-09T16:08:10;23.70;73.20
3550;DHT22;45572;48.804;8.330;2023-10-09T16:10:39;23.40;74.60
3550;DHT22;45572;48.804;8.330;2023-10-09T16:13:07;23.20;75.40
3550;DHT22;45572;48.804;8.330;2023-10-09T16:15:41;23.00;76.30
3550;DHT22;45572;48.804;8.330;2023-10-09T16:18:10;22.80;77.00
3550;DHT22;45572;48.804;8.330;2023-10-09T16:20:38;22.60;76.40
3550;DHT22;45572;48.804;8.330;2023-10-09T16:23:07;22.40;76.60
3550;DHT22;45572;48.804;8.330;2023-10-09T16:25:36;22.30;77.30
3550;DHT22;45572;48.804;8.330;2023-10-09T16:28:05;22.20;77.40
3550;DHT22;45572;48.804;8.330;2023-10-09T16:30:35;22.10;76.70